Oklahoma City, OK (73112)

12:29 AM CDT on August 22, 2014 (GMT -0500)
Stars-N-Stripes Park | Change Station
CLOSE
Current Station
Personal Weather Station
Location: Oklahoma City, OK
Elevation: 1222 ft
Nearby Weather Stations

Elev 1222 ft 35.54 °N, 97.58 °W | Updated 10 seconds ago

Clear
Clear
86.5 °F
Feels Like 84 °F
N
5.8
Wind Variable Wind from South
Gusts 15.4 mph

Today
High -- | Low -- °F
--% Chance of Precip.
Yesterday
High -- | Low -- °F
Precip. -- in
6:54 AM 8:10 PM
Waning Crescent, 10% visible
Pressure 29.94 in
Visibility 10.0 miles
Clouds Clear
Heat Index 84 °F
Dew Point 50 °F
Humidity 29%
Rainfall 0.00 in
Snow Depth Not available.
UV 0 out of 12
Pollen 9.80 out of 12
Ozone Good
PM2.5 Moderate
Flu Activity Not available.
METAR KPWA 220453Z AUTO 17014KT 10SM CLR 30/19 A2994

More Conditions Fewer Conditions

Pressure 29.94 in
Visibility 10.0 miles
Clouds Clear
Heat Index 84 °F
Dew Point 50 °F
Humidity 29%
Rainfall 0.00 in
Snow Depth Not available.
UV 0 out of 12
Pollen 9.80 out of 12
Ozone Good
PM2.5 Moderate
Flu Activity Not available.
METAR KPWA 220453Z AUTO 17014KT 10SM CLR 30/19 A2994

More Conditions Fewer Conditions

10-Day Weather Forecast

Almanac

Astronomy

Aug. 22, 2014 Rise Set
Actual Time 6:54 AM CDT 8:10 PM CDT
Civil Twilight 6:28 AM CDT 8:37 PM CDT
Nautical Twilight 5:56 AM CDT 9:08 PM CDT
Astronomical Twilight 5:23 AM CDT 9:41 PM CDT
Moon 4:21 AM CDT 6:18 PM CDT
Length of Visible Light 14h 08m
Length of Day
13h 15m
Tomorrow will be 2m 4s shorter.
Waning Crescent, 10% of the Moon is Illuminated
Today
Waning Crescent
Aug 25
New
Sep 2
First Quarter
Sep 8
Full
Sep 15
Last Quarter

Today's Extremes

State Highs State Lows

Community

WunderPhotos

Upload Photos

1,746,131 photos uploaded!

Nearby

Air Quality

  Air Quality AQ Index Pollutant
Yesterday Moderate
PM2.5
Yesterday Good
OZONE
Current Moderate
PM2.5
Current Good
OZONE
Thursday Moderate
PM2.5
Thursday Good
OZONE
Friday Moderate
PM2.5
Friday Good
OZONE
Saturday Moderate
PM2.5
Saturday Good
OZONE
Sunday Moderate
PM2.5
Sunday Good
OZONE
Monday Moderate
PM2.5
Monday Good
OZONE

Snow Depth

Station Depth Elevation
No new snow has been reported.

Earthquake Activity

City Distance Mag. Time & Date
Medford, Oklahoma 94 miles 3.4 10:59 AM CDT
2014-08-17
Perry, Oklahoma 55 miles 3.0 8:43 AM CDT
2014-08-17
Medford, Oklahoma 91 miles 2.7 2:28 AM CDT
2014-08-17
Medford, Oklahoma 92 miles 3.5 1:31 AM CDT
2014-08-17
Minimum magnitude displayed is 2.5.

Coastal Water Temperatures

Place Temperature
No Stations Reporting

Nearby Weather Stations